College Crest, Oregon
Current Conditions -  °F | °C
As of 3:54 AM on Saturday 20 Dec 2014 (Local Time) from KEUG Reporting Station
Light Rain Light Rain  
Wind Chill: 43°   Ceiling: 5500
Heat Index: 49°   Visibility: 10mi
Dew Point: 45°   Wind: 15mph
Humidity: 86%   Direction: 170°S
Pressure: 29.83"   Gusts: NA
Location:  44.0685°N, 123.082°W
Report Text: KEUG 201154Z AUTO 17013KT 10SM -RA FEW043 OVC055 09/07 A2983 RMK AO2 SLP103 P0002 60031 70067 T00940072 10094 20083 58023
Loading
Personal Weather Stations






























Interactive Weather Map New forecast layout! Learn more

10-Day Weather Forecast

Advertisements
Track Severe Weather on mobile